createdAt,value
2022-07-25T00:00:24.697Z,22.67
2022-07-25T00:15:24.341Z,22.38
2022-07-25T00:30:24.480Z,22.20
2022-07-25T00:45:24.410Z,21.72
2022-07-25T01:00:33.286Z,21.93
2022-07-25T01:15:23.342Z,21.93
2022-07-25T01:30:23.357Z,21.38
2022-07-25T01:45:23.483Z,21.00
2022-07-25T02:00:23.554Z,20.90
2022-07-25T02:15:23.581Z,20.70
2022-07-25T02:30:23.738Z,20.75
2022-07-25T02:45:23.543Z,20.62
2022-07-25T03:00:23.558Z,20.23
2022-07-25T03:15:23.564Z,20.02
2022-07-25T03:30:23.543Z,19.93
2022-07-25T03:45:23.689Z,19.83
2022-07-25T04:00:23.805Z,19.55
2022-07-25T04:15:24.189Z,19.45
2022-07-25T04:21:45.347Z,20.00
2022-07-25T04:36:34.193Z,19.40
2022-07-25T04:51:33.763Z,19.25
2022-07-25T05:06:33.966Z,19.17
2022-07-25T05:15:23.960Z,20.00
2022-07-25T05:30:23.874Z,19.33
2022-07-25T05:45:24.051Z,19.50
2022-07-25T06:00:24.887Z,19.80
2022-07-25T06:15:26.866Z,21.00
2022-07-25T06:30:24.068Z,22.73
2022-07-25T06:45:25.371Z,24.50
2022-07-25T07:00:24.172Z,25.48
2022-07-25T07:15:24.066Z,26.67
2022-07-25T07:30:30.598Z,27.60
2022-07-25T07:45:24.171Z,28.25
2022-07-25T08:00:26.773Z,29.70
2022-07-25T08:15:24.283Z,32.90
2022-07-25T08:30:24.409Z,30.73
2022-07-25T08:45:24.297Z,30.97
2022-07-25T09:00:24.440Z,30.20
2022-07-25T09:15:24.498Z,30.88
2022-07-25T09:30:24.242Z,30.43
2022-07-25T09:45:33.284Z,30.97
2022-07-25T10:00:33.639Z,31.32
2022-07-25T10:15:23.361Z,31.80
2022-07-25T10:30:23.243Z,32.12
2022-07-25T10:45:23.485Z,32.47
2022-07-25T11:00:23.478Z,32.75
2022-07-25T11:15:23.525Z,33.07
2022-07-25T11:30:23.425Z,33.40
2022-07-25T11:45:23.480Z,34.50
2022-07-25T12:00:23.604Z,34.90
2022-07-25T12:15:23.728Z,34.18
2022-07-25T12:30:23.872Z,34.38
2022-07-25T12:45:23.359Z,34.55
2022-07-25T13:00:23.646Z,34.88
2022-07-25T13:15:23.630Z,34.88
2022-07-25T13:30:23.961Z,34.62
2022-07-25T13:45:23.766Z,34.70
2022-07-25T14:00:24.249Z,34.38
2022-07-25T14:15:24.017Z,34.03
2022-07-25T14:30:23.745Z,33.90
2022-07-25T14:45:23.949Z,33.83
2022-07-25T15:00:29.180Z,34.12
2022-07-25T15:15:23.838Z,34.40
2022-07-25T15:30:29.067Z,34.20
2022-07-25T15:45:32.997Z,35.00
2022-07-25T16:00:27.547Z,34.50
2022-07-25T16:15:23.754Z,34.17
2022-07-25T16:30:23.736Z,33.50
2022-07-25T16:45:23.718Z,33.28
2022-07-25T17:00:23.573Z,32.65
2022-07-25T17:15:23.806Z,32.07
2022-07-25T17:30:23.558Z,31.88
2022-07-25T17:45:23.570Z,31.75
2022-07-25T18:00:23.864Z,31.65
2022-07-25T18:15:23.880Z,31.40
2022-07-25T18:30:29.019Z,31.20
2022-07-25T18:45:24.462Z,30.85
2022-07-25T19:00:23.893Z,30.00
2022-07-25T19:15:23.993Z,29.70
2022-07-25T19:30:23.853Z,29.70
2022-07-25T19:45:23.804Z,29.23
2022-07-25T20:00:24.217Z,28.82
2022-07-25T20:15:23.905Z,28.50
2022-07-25T20:30:23.947Z,28.38
2022-07-25T20:45:23.886Z,27.95
2022-07-25T21:00:24.312Z,27.45
2022-07-25T21:15:24.023Z,27.35
2022-07-25T21:30:24.011Z,26.93
2022-07-25T21:45:24.148Z,26.45
2022-07-25T22:01:02.600Z,25.50
2022-07-25T22:15:23.090Z,25.55
2022-07-25T22:30:23.178Z,25.52
2022-07-25T22:45:22.999Z,25.12
2022-07-25T23:00:23.096Z,24.88
2022-07-25T23:15:23.085Z,24.77
2022-07-25T23:30:23.196Z,24.92
2022-07-25T23:45:25.438Z,24.77
